sensor_id;sensor_type;location;lat;lon;timestamp;pressure;altitude;pressure_sealevel;temperature;humidity
34742;BME280;20968;42.696;23.360;2022-08-03T00:00:04;95286.66;;;23.22;53.95
34742;BME280;20968;42.696;23.360;2022-08-03T00:02:29;95283.44;;;23.10;54.52
34742;BME280;20968;42.696;23.360;2022-08-03T00:04:56;95274.28;;;23.17;54.59
34742;BME280;20968;42.696;23.360;2022-08-03T00:07:22;95278.81;;;23.28;54.64
34742;BME280;20968;42.696;23.360;2022-08-03T00:09:47;95275.25;;;23.27;54.62
34742;BME280;20968;42.696;23.360;2022-08-03T00:12:13;95284.78;;;23.17;54.55
34742;BME280;20968;42.696;23.360;2022-08-03T00:14:38;95276.03;;;22.85;55.27
34742;BME280;20968;42.696;23.360;2022-08-03T00:17:04;95274.75;;;22.93;55.18
34742;BME280;20968;42.696;23.360;2022-08-03T00:19:29;95277.03;;;22.95;54.24
34742;BME280;20968;42.696;23.360;2022-08-03T00:21:55;95273.59;;;22.81;54.19
34742;BME280;20968;42.696;23.360;2022-08-03T00:24:20;95277.28;;;22.69;54.58
34742;BME280;20968;42.696;23.360;2022-08-03T00:26:45;95277.63;;;22.66;54.64
34742;BME280;20968;42.696;23.360;2022-08-03T00:29:11;95284.97;;;22.69;54.62
34742;BME280;20968;42.696;23.360;2022-08-03T00:31:36;95288.22;;;22.45;54.84
34742;BME280;20968;42.696;23.360;2022-08-03T00:34:02;95276.94;;;22.37;55.25
34742;BME280;20968;42.696;23.360;2022-08-03T00:36:27;95279.19;;;22.39;55.27
34742;BME280;20968;42.696;23.360;2022-08-03T00:38:54;95288.25;;;22.52;55.28
34742;BME280;20968;42.696;23.360;2022-08-03T00:41:19;95274.59;;;22.56;55.01
34742;BME280;20968;42.696;23.360;2022-08-03T00:43:45;95275.84;;;22.48;55.06
34742;BME280;20968;42.696;23.360;2022-08-03T00:46:12;95274.31;;;22.32;55.45
34742;BME280;20968;42.696;23.360;2022-08-03T00:48:37;95285.19;;;22.15;55.96
34742;BME280;20968;42.696;23.360;2022-08-03T00:51:03;95280.78;;;21.99;57.05
34742;BME280;20968;42.696;23.360;2022-08-03T00:53:29;95275.88;;;22.20;56.69
34742;BME280;20968;42.696;23.360;2022-08-03T00:55:55;95274.78;;;22.23;57.03
34742;BME280;20968;42.696;23.360;2022-08-03T00:58:20;95278.78;;;22.07;57.06
34742;BME280;20968;42.696;23.360;2022-08-03T01:00:46;95281.13;;;21.95;57.47
34742;BME280;20968;42.696;23.360;2022-08-03T01:03:12;95277.97;;;21.99;57.07
34742;BME280;20968;42.696;23.360;2022-08-03T01:08:16;95274.94;;;21.90;57.58
34742;BME280;20968;42.696;23.360;2022-08-03T01:13:35;95270.47;;;21.94;57.66
34742;BME280;20968;42.696;23.360;2022-08-03T01:19:10;95277.84;;;22.04;57.89
34742;BME280;20968;42.696;23.360;2022-08-03T01:24:41;95266.75;;;21.99;57.70
34742;BME280;20968;42.696;23.360;2022-08-03T01:27:14;95262.56;;;21.85;58.13
34742;BME280;20968;42.696;23.360;2022-08-03T01:32:54;95266.06;;;22.06;57.92
34742;BME280;20968;42.696;23.360;2022-08-03T01:38:26;95274.03;;;21.94;57.70
34742;BME280;20968;42.696;23.360;2022-08-03T01:40:52;95269.72;;;21.93;58.24
34742;BME280;20968;42.696;23.360;2022-08-03T01:43:21;95272.16;;;21.97;58.13
34742;BME280;20968;42.696;23.360;2022-08-03T01:45:48;95277.56;;;21.95;58.67
34742;BME280;20968;42.696;23.360;2022-08-03T01:48:16;95272.03;;;22.02;58.34
34742;BME280;20968;42.696;23.360;2022-08-03T01:50:44;95265.81;;;21.96;57.94
34742;BME280;20968;42.696;23.360;2022-08-03T01:53:13;95268.19;;;21.92;57.77
34742;BME280;20968;42.696;23.360;2022-08-03T01:55:39;95275.31;;;21.93;57.94
34742;BME280;20968;42.696;23.360;2022-08-03T01:58:07;95271.41;;;21.96;58.15
34742;BME280;20968;42.696;23.360;2022-08-03T02:00:36;95275.72;;;21.97;58.46
34742;BME280;20968;42.696;23.360;2022-08-03T02:03:06;95272.47;;;21.86;57.75
34742;BME280;20968;42.696;23.360;2022-08-03T02:05:33;95268.34;;;21.87;57.83
34742;BME280;20968;42.696;23.360;2022-08-03T02:08:01;95272.47;;;21.86;58.27
34742;BME280;20968;42.696;23.360;2022-08-03T02:10:28;95272.47;;;21.86;58.43
34742;BME280;20968;42.696;23.360;2022-08-03T02:12:58;95274.28;;;21.84;58.27
34742;BME280;20968;42.696;23.360;2022-08-03T02:15:25;95268.84;;;21.78;58.52
34742;BME280;20968;42.696;23.360;2022-08-03T02:17:52;95263.44;;;21.80;58.56
34742;BME280;20968;42.696;23.360;2022-08-03T02:20:19;95260.69;;;21.88;58.50
34742;BME280;20968;42.696;23.360;2022-08-03T02:22:45;95274.16;;;21.89;58.32
34742;BME280;20968;42.696;23.360;2022-08-03T02:25:14;95267.03;;;21.88;57.86
34742;BME280;20968;42.696;23.360;2022-08-03T02:27:48;95254.88;;;21.86;57.99
34742;BME280;20968;42.696;23.360;2022-08-03T02:30:15;95261.25;;;21.86;57.52
34742;BME280;20968;42.696;23.360;2022-08-03T02:32:43;95262.19;;;21.89;57.69
34742;BME280;20968;42.696;23.360;2022-08-03T02:35:14;95266.66;;;21.84;58.05
34742;BME280;20968;42.696;23.360;2022-08-03T02:37:45;95261.25;;;21.86;58.65
34742;BME280;20968;42.696;23.360;2022-08-03T02:40:12;95267.25;;;21.90;58.57
34742;BME280;20968;42.696;23.360;2022-08-03T02:42:39;95261.25;;;21.86;58.44
34742;BME280;20968;42.696;23.360;2022-08-03T02:45:08;95270.53;;;21.81;58.43
34742;BME280;20968;42.696;23.360;2022-08-03T02:47:39;95271.94;;;21.67;58.68
34742;BME280;20968;42.696;23.360;2022-08-03T02:50:10;95267.84;;;21.68;58.70
34742;BME280;20968;42.696;23.360;2022-08-03T02:52:37;95267.63;;;21.66;59.02
34742;BME280;20968;42.696;23.360;2022-08-03T02:55:05;95271.44;;;21.76;58.64
34742;BME280;20968;42.696;23.360;2022-08-03T02:57:34;95256.03;;;21.62;58.83
34742;BME280;20968;42.696;23.360;2022-08-03T03:00:02;95273.66;;;21.70;58.69
34742;BME280;20968;42.696;23.360;2022-08-03T03:02:28;95274.34;;;21.63;58.77
34742;BME280;20968;42.696;23.360;2022-08-03T03:04:54;95280.09;;;21.58;58.64
34742;BME280;20968;42.696;23.360;2022-08-03T03:07:21;95286.88;;;21.49;58.58
34742;BME280;20968;42.696;23.360;2022-08-03T03:09:47;95282.72;;;21.43;59.17
34742;BME280;20968;42.696;23.360;2022-08-03T03:12:14;95285.88;;;21.39;59.08
34742;BME280;20968;42.696;23.360;2022-08-03T03:14:41;95286.53;;;21.53;59.09
34742;BME280;20968;42.696;23.360;2022-08-03T03:17:08;95285.59;;;21.50;59.53
34742;BME280;20968;42.696;23.360;2022-08-03T03:19:35;95288.38;;;21.50;59.23
34742;BME280;20968;42.696;23.360;2022-08-03T03:22:02;95297.94;;;21.34;59.52
34742;BME280;20968;42.696;23.360;2022-08-03T03:24:29;95302.75;;;21.47;59.62
34742;BME280;20968;42.696;23.360;2022-08-03T03:26:55;95302.41;;;21.50;59.65
34742;BME280;20968;42.696;23.360;2022-08-03T03:29:21;95300.38;;;21.51;59.80
34742;BME280;20968;42.696;23.360;2022-08-03T03:31:47;95301.88;;;21.52;59.52
34742;BME280;20968;42.696;23.360;2022-08-03T03:34:12;95307.66;;;21.54;59.49
34742;BME280;20968;42.696;23.360;2022-08-03T03:36:39;95303.56;;;21.34;59.02
34742;BME280;20968;42.696;23.360;2022-08-03T03:39:04;95295.16;;;21.34;59.55
34742;BME280;20968;42.696;23.360;2022-08-03T03:43:55;95303.72;;;21.29;59.46
34742;BME280;20968;42.696;23.360;2022-08-03T03:46:21;95302.56;;;21.12;59.59
34742;BME280;20968;42.696;23.360;2022-08-03T03:48:47;95303.06;;;20.90;60.03
34742;BME280;20968;42.696;23.360;2022-08-03T03:51:12;95311.34;;;20.95;60.25
34742;BME280;20968;42.696;23.360;2022-08-03T03:53:38;95312.06;;;21.09;59.89
34742;BME280;20968;42.696;23.360;2022-08-03T03:56:03;95309.69;;;21.13;59.95
34742;BME280;20968;42.696;23.360;2022-08-03T03:58:30;95315.94;;;21.18;59.74
34742;BME280;20968;42.696;23.360;2022-08-03T04:00:56;95316.88;;;21.21;59.49
34742;BME280;20968;42.696;23.360;2022-08-03T04:03:21;95309.31;;;21.29;59.71
34742;BME280;20968;42.696;23.360;2022-08-03T04:05:47;95318.78;;;21.26;59.85
34742;BME280;20968;42.696;23.360;2022-08-03T04:08:31;95311.13;;;21.26;59.62
34742;BME280;20968;42.696;23.360;2022-08-03T04:13:56;95313.28;;;21.33;59.42
34742;BME280;20968;42.696;23.360;2022-08-03T04:16:31;95306.00;;;21.38;59.07
34742;BME280;20968;42.696;23.360;2022-08-03T04:19:01;95308.47;;;21.41;59.32
34742;BME280;20968;42.696;23.360;2022-08-03T04:21:29;95303.31;;;21.45;59.47
34742;BME280;20968;42.696;23.360;2022-08-03T04:23:58;95318.69;;;21.52;59.29
34742;BME280;20968;42.696;23.360;2022-08-03T04:26:29;95323.09;;;21.60;59.55
34742;BME280;20968;42.696;23.360;2022-08-03T04:28:56;95311.63;;;21.71;59.37
34742;BME280;20968;42.696;23.360;2022-08-03T04:31:23;95318.34;;;21.76;59.18
34742;BME280;20968;42.696;23.360;2022-08-03T04:33:50;95322.31;;;21.80;59.16
34742;BME280;20968;42.696;23.360;2022-08-03T04:36:21;95325.41;;;21.90;59.15
34742;BME280;20968;42.696;23.360;2022-08-03T04:39:38;95326.63;;;21.81;59.32
34742;BME280;20968;42.696;23.360;2022-08-03T04:41:59;95326.94;;;21.91;59.64
34742;BME280;20968;42.696;23.360;2022-08-03T04:44:27;95331.03;;;21.69;59.08
34742;BME280;20968;42.696;23.360;2022-08-03T04:46:53;95327.06;;;21.85;58.92
34742;BME280;20968;42.696;23.360;2022-08-03T04:49:19;95335.59;;;21.80;59.34
34742;BME280;20968;42.696;23.360;2022-08-03T04:51:46;95343.31;;;21.66;59.13
34742;BME280;20968;42.696;23.360;2022-08-03T04:54:13;95330.72;;;21.39;60.19
34742;BME280;20968;42.696;23.360;2022-08-03T04:56:40;95340.88;;;21.63;60.28
34742;BME280;20968;42.696;23.360;2022-08-03T04:59:06;95335.72;;;21.94;60.03
34742;BME280;20968;42.696;23.360;2022-08-03T05:01:31;95335.16;;;22.16;59.61
34742;BME280;20968;42.696;23.360;2022-08-03T05:03:56;95338.97;;;22.26;58.20
34742;BME280;20968;42.696;23.360;2022-08-03T05:06:22;95344.16;;;22.43;58.00
34742;BME280;20968;42.696;23.360;2022-08-03T05:08:47;95347.19;;;22.52;58.62
34742;BME280;20968;42.696;23.360;2022-08-03T05:11:14;95351.47;;;22.73;57.79
34742;BME280;20968;42.696;23.360;2022-08-03T05:13:40;95349.31;;;22.94;57.19
34742;BME280;20968;42.696;23.360;2022-08-03T05:16:05;95351.84;;;23.05;56.54
34742;BME280;20968;42.696;23.360;2022-08-03T05:18:30;95367.44;;;23.21;56.34
34742;BME280;20968;42.696;23.360;2022-08-03T05:20:56;95365.47;;;23.44;55.66
34742;BME280;20968;42.696;23.360;2022-08-03T05:23:21;95357.41;;;23.48;55.63
34742;BME280;20968;42.696;23.360;2022-08-03T05:25:47;95363.06;;;23.63;55.27
34742;BME280;20968;42.696;23.360;2022-08-03T05:28:12;95374.34;;;23.70;54.42
34742;BME280;20968;42.696;23.360;2022-08-03T05:30:37;95370.56;;;23.60;53.85
34742;BME280;20968;42.696;23.360;2022-08-03T05:33:03;95370.69;;;23.33;55.59
34742;BME280;20968;42.696;23.360;2022-08-03T05:35:29;95369.94;;;23.47;55.21
34742;BME280;20968;42.696;23.360;2022-08-03T05:37:55;95375.66;;;23.69;54.76
34742;BME280;20968;42.696;23.360;2022-08-03T05:40:20;95364.41;;;23.77;54.48
34742;BME280;20968;42.696;23.360;2022-08-03T05:42:45;95382.28;;;23.94;53.81
34742;BME280;20968;42.696;23.360;2022-08-03T05:45:11;95389.59;;;23.97;53.91
34742;BME280;20968;42.696;23.360;2022-08-03T05:47:39;95375.34;;;24.03;54.01
34742;BME280;20968;42.696;23.360;2022-08-03T05:50:05;95377.59;;;24.12;53.89
34742;BME280;20968;42.696;23.360;2022-08-03T05:52:30;95370.47;;;24.11;53.79
34742;BME280;20968;42.696;23.360;2022-08-03T05:54:55;95377.59;;;24.19;53.57
34742;BME280;20968;42.696;23.360;2022-08-03T05:57:21;95377.59;;;24.27;53.52
34742;BME280;20968;42.696;23.360;2022-08-03T05:59:46;95383.06;;;24.32;52.94
34742;BME280;20968;42.696;23.360;2022-08-03T06:02:11;95383.59;;;24.31;53.31
34742;BME280;20968;42.696;23.360;2022-08-03T06:04:37;95381.16;;;24.27;53.26
34742;BME280;20968;42.696;23.360;2022-08-03T06:07:02;95382.88;;;24.37;53.70
34742;BME280;20968;42.696;23.360;2022-08-03T06:09:27;95392.63;;;24.66;52.39
34742;BME280;20968;42.696;23.360;2022-08-03T06:11:53;95386.44;;;24.68;52.25
34742;BME280;20968;42.696;23.360;2022-08-03T06:14:19;95390.91;;;24.78;52.81
34742;BME280;20968;42.696;23.360;2022-08-03T06:16:44;95384.69;;;24.87;52.73
34742;BME280;20968;42.696;23.360;2022-08-03T06:19:10;95375.66;;;24.96;52.12
34742;BME280;20968;42.696;23.360;2022-08-03T06:21:35;95386.16;;;25.11;51.41
34742;BME280;20968;42.696;23.360;2022-08-03T06:24:00;95389.50;;;25.24;51.90
34742;BME280;20968;42.696;23.360;2022-08-03T06:26:26;95387.78;;;25.36;52.24
34742;BME280;20968;42.696;23.360;2022-08-03T06:28:52;95381.09;;;25.56;51.71
34742;BME280;20968;42.696;23.360;2022-08-03T06:31:19;95384.09;;;25.58;50.97
34742;BME280;20968;42.696;23.360;2022-08-03T06:33:44;95383.78;;;25.39;51.86
34742;BME280;20968;42.696;23.360;2022-08-03T06:36:10;95382.19;;;25.60;50.99
34742;BME280;20968;42.696;23.360;2022-08-03T06:38:35;95381.28;;;25.58;50.39
34742;BME280;20968;42.696;23.360;2022-08-03T06:41:00;95378.16;;;25.78;49.87
34742;BME280;20968;42.696;23.360;2022-08-03T06:43:26;95371.84;;;25.95;49.16
34742;BME280;20968;42.696;23.360;2022-08-03T06:45:51;95373.06;;;26.08;49.36
34742;BME280;20968;42.696;23.360;2022-08-03T06:48:16;95373.56;;;26.14;48.57
34742;BME280;20968;42.696;23.360;2022-08-03T06:50:42;95377.19;;;26.32;49.24
34742;BME280;20968;42.696;23.360;2022-08-03T06:53:08;95377.38;;;26.41;48.42
34742;BME280;20968;42.696;23.360;2022-08-03T06:55:34;95376.69;;;26.50;48.08
34742;BME280;20968;42.696;23.360;2022-08-03T06:57:59;95378.06;;;26.49;47.26
34742;BME280;20968;42.696;23.360;2022-08-03T07:00:25;95372.81;;;26.46;47.13
34742;BME280;20968;42.696;23.360;2022-08-03T07:02:51;95373.66;;;26.31;47.63
34742;BME280;20968;42.696;23.360;2022-08-03T07:05:16;95367.59;;;26.10;47.94
34742;BME280;20968;42.696;23.360;2022-08-03T07:07:42;95373.19;;;26.18;49.91
34742;BME280;20968;42.696;23.360;2022-08-03T07:10:08;95372.53;;;26.27;48.60
34742;BME280;20968;42.696;23.360;2022-08-03T07:12:36;95383.13;;;26.51;47.56
34742;BME280;20968;42.696;23.360;2022-08-03T07:15:04;95373.66;;;26.73;47.48
34742;BME280;20968;42.696;23.360;2022-08-03T07:17:31;95372.78;;;26.87;48.04
34742;BME280;20968;42.696;23.360;2022-08-03T07:19:58;95377.59;;;26.77;48.43
34742;BME280;20968;42.696;23.360;2022-08-03T07:22:25;95368.78;;;26.90;47.93
34742;BME280;20968;42.696;23.360;2022-08-03T07:24:50;95374.66;;;27.09;46.91
34742;BME280;20968;42.696;23.360;2022-08-03T07:27:16;95378.47;;;27.21;47.59
34742;BME280;20968;42.696;23.360;2022-08-03T07:29:41;95382.22;;;27.06;45.13
34742;BME280;20968;42.696;23.360;2022-08-03T07:32:07;95376.34;;;26.87;45.86
34742;BME280;20968;42.696;23.360;2022-08-03T07:34:32;95378.94;;;26.93;45.73
34742;BME280;20968;42.696;23.360;2022-08-03T07:36:58;95384.50;;;26.83;46.11
34742;BME280;20968;42.696;23.360;2022-08-03T07:39:23;95381.31;;;26.79;45.69
34742;BME280;20968;42.696;23.360;2022-08-03T07:41:49;95372.66;;;26.77;45.57
34742;BME280;20968;42.696;23.360;2022-08-03T07:44:16;95370.13;;;27.06;46.69
34742;BME280;20968;42.696;23.360;2022-08-03T07:46:41;95369.91;;;27.28;45.56
34742;BME280;20968;42.696;23.360;2022-08-03T07:49:07;95378.94;;;27.44;46.78
34742;BME280;20968;42.696;23.360;2022-08-03T07:51:32;95375.50;;;27.62;45.87
34742;BME280;20968;42.696;23.360;2022-08-03T07:53:58;95372.81;;;27.81;45.00
34742;BME280;20968;42.696;23.360;2022-08-03T07:56:25;95379.44;;;27.93;44.64
34742;BME280;20968;42.696;23.360;2022-08-03T07:58:50;95383.16;;;27.95;42.07
34742;BME280;20968;42.696;23.360;2022-08-03T08:01:16;95378.34;;;27.88;41.27
34742;BME280;20968;42.696;23.360;2022-08-03T08:03:44;95376.84;;;27.87;42.17
34742;BME280;20968;42.696;23.360;2022-08-03T08:06:10;95377.19;;;27.91;42.57
34742;BME280;20968;42.696;23.360;2022-08-03T08:08:37;95384.22;;;28.00;43.54
34742;BME280;20968;42.696;23.360;2022-08-03T08:11:02;95383.00;;;28.20;42.94
34742;BME280;20968;42.696;23.360;2022-08-03T08:13:27;95385.28;;;28.21;40.66
34742;BME280;20968;42.696;23.360;2022-08-03T08:15:53;95392.16;;;28.28;42.31
34742;BME280;20968;42.696;23.360;2022-08-03T08:18:18;95387.59;;;28.41;39.66
34742;BME280;20968;42.696;23.360;2022-08-03T08:20:44;95392.19;;;28.37;40.88
34742;BME280;20968;42.696;23.360;2022-08-03T08:23:09;95376.44;;;28.53;40.46
34742;BME280;20968;42.696;23.360;2022-08-03T08:25:34;95383.50;;;28.71;40.37
34742;BME280;20968;42.696;23.360;2022-08-03T08:28:00;95388.00;;;28.74;39.86
34742;BME280;20968;42.696;23.360;2022-08-03T08:30:27;95382.47;;;28.76;40.47
34742;BME280;20968;42.696;23.360;2022-08-03T08:32:53;95381.88;;;28.77;41.21
34742;BME280;20968;42.696;23.360;2022-08-03T08:35:18;95384.47;;;28.83;40.73
34742;BME280;20968;42.696;23.360;2022-08-03T08:37:45;95382.25;;;29.00;41.01
34742;BME280;20968;42.696;23.360;2022-08-03T08:40:12;95381.22;;;29.15;38.99
34742;BME280;20968;42.696;23.360;2022-08-03T08:42:38;95381.94;;;28.96;39.54
34742;BME280;20968;42.696;23.360;2022-08-03T08:45:04;95374.47;;;28.91;39.89
34742;BME280;20968;42.696;23.360;2022-08-03T08:47:33;95378.66;;;29.00;41.17
34742;BME280;20968;42.696;23.360;2022-08-03T08:50:01;95373.91;;;29.30;39.41
34742;BME280;20968;42.696;23.360;2022-08-03T08:52:28;95373.59;;;29.26;37.80
34742;BME280;20968;42.696;23.360;2022-08-03T08:54:57;95361.19;;;29.22;37.42
34742;BME280;20968;42.696;23.360;2022-08-03T08:57:27;95366.13;;;29.21;38.46
34742;BME280;20968;42.696;23.360;2022-08-03T08:59:55;95374.50;;;29.19;36.98
34742;BME280;20968;42.696;23.360;2022-08-03T09:02:22;95371.06;;;29.30;38.43
34742;BME280;20968;42.696;23.360;2022-08-03T09:04:48;95358.38;;;29.50;38.02
34742;BME280;20968;42.696;23.360;2022-08-03T09:07:14;95356.69;;;29.76;38.23
34742;BME280;20968;42.696;23.360;2022-08-03T09:09:40;95363.09;;;29.95;37.36
34742;BME280;20968;42.696;23.360;2022-08-03T09:12:07;95360.63;;;30.20;38.04
34742;BME280;20968;42.696;23.360;2022-08-03T09:14:33;95359.13;;;30.19;35.76
34742;BME280;20968;42.696;23.360;2022-08-03T09:16:59;95367.88;;;30.02;35.69
34742;BME280;20968;42.696;23.360;2022-08-03T09:19:27;95365.97;;;29.76;36.30
34742;BME280;20968;42.696;23.360;2022-08-03T09:22:14;95364.28;;;29.83;37.18
34742;BME280;20968;42.696;23.360;2022-08-03T09:24:57;95361.16;;;29.88;36.96
34742;BME280;20968;42.696;23.360;2022-08-03T09:27:23;95363.72;;;29.94;36.35
34742;BME280;20968;42.696;23.360;2022-08-03T09:29:50;95360.84;;;30.03;35.95
34742;BME280;20968;42.696;23.360;2022-08-03T09:32:22;95354.41;;;29.93;36.59
34742;BME280;20968;42.696;23.360;2022-08-03T09:34:50;95355.09;;;30.22;38.78
34742;BME280;20968;42.696;23.360;2022-08-03T09:37:18;95356.41;;;30.61;37.11
34742;BME280;20968;42.696;23.360;2022-08-03T09:39:44;95354.94;;;30.60;35.26
34742;BME280;20968;42.696;23.360;2022-08-03T09:44:38;95360.06;;;30.52;37.12
34742;BME280;20968;42.696;23.360;2022-08-03T09:47:06;95357.56;;;30.37;36.93
34742;BME280;20968;42.696;23.360;2022-08-03T09:49:32;95358.19;;;29.96;36.23
34742;BME280;20968;42.696;23.360;2022-08-03T09:52:01;95359.66;;;29.97;35.57
34742;BME280;20968;42.696;23.360;2022-08-03T09:54:29;95344.13;;;30.28;36.67
34742;BME280;20968;42.696;23.360;2022-08-03T09:56:56;95349.63;;;30.35;37.08
34742;BME280;20968;42.696;23.360;2022-08-03T09:59:24;95349.81;;;30.68;37.28
34742;BME280;20968;42.696;23.360;2022-08-03T10:01:50;95343.97;;;30.86;35.60
34742;BME280;20968;42.696;23.360;2022-08-03T10:04:15;95340.34;;;30.95;36.80
34742;BME280;20968;42.696;23.360;2022-08-03T10:06:45;95340.88;;;31.24;36.66
34742;BME280;20968;42.696;23.360;2022-08-03T10:09:25;95342.53;;;31.27;35.52
34742;BME280;20968;42.696;23.360;2022-08-03T10:11:51;95336.06;;;31.48;34.83
34742;BME280;20968;42.696;23.360;2022-08-03T10:14:16;95329.69;;;31.38;34.83
34742;BME280;20968;42.696;23.360;2022-08-03T10:16:47;95338.41;;;31.51;34.46
34742;BME280;20968;42.696;23.360;2022-08-03T10:19:13;95338.13;;;31.47;35.09
34742;BME280;20968;42.696;23.360;2022-08-03T10:21:44;95334.50;;;31.56;33.50
34742;BME280;20968;42.696;23.360;2022-08-03T10:24:11;95328.94;;;31.58;36.14
34742;BME280;20968;42.696;23.360;2022-08-03T10:26:40;95330.22;;;31.78;34.69
34742;BME280;20968;42.696;23.360;2022-08-03T10:29:13;95325.53;;;31.94;33.93
34742;BME280;20968;42.696;23.360;2022-08-03T10:31:44;95329.78;;;32.04;34.10
34742;BME280;20968;42.696;23.360;2022-08-03T10:34:18;95324.81;;;32.05;36.46
34742;BME280;20968;42.696;23.360;2022-08-03T10:36:48;95322.88;;;32.53;34.14
34742;BME280;20968;42.696;23.360;2022-08-03T10:39:18;95323.16;;;32.57;33.91
34742;BME280;20968;42.696;23.360;2022-08-03T10:41:44;95316.72;;;32.56;32.58
34742;BME280;20968;42.696;23.360;2022-08-03T10:44:17;95318.03;;;32.55;33.75
34742;BME280;20968;42.696;23.360;2022-08-03T10:46:44;95320.16;;;32.78;32.49
34742;BME280;20968;42.696;23.360;2022-08-03T10:49:15;95322.84;;;33.10;33.35
34742;BME280;20968;42.696;23.360;2022-08-03T10:51:43;95321.75;;;33.40;32.77
34742;BME280;20968;42.696;23.360;2022-08-03T10:56:59;95325.75;;;32.87;32.78
34742;BME280;20968;42.696;23.360;2022-08-03T11:02:15;95312.44;;;32.92;33.34
34742;BME280;20968;42.696;23.360;2022-08-03T11:04:41;95305.38;;;32.81;32.31
34742;BME280;20968;42.696;23.360;2022-08-03T11:09:43;95302.53;;;32.58;32.68
34742;BME280;20968;42.696;23.360;2022-08-03T11:12:31;95299.56;;;32.68;33.57
34742;BME280;20968;42.696;23.360;2022-08-03T11:14:59;95307.50;;;32.69;33.75
34742;BME280;20968;42.696;23.360;2022-08-03T11:17:25;95301.84;;;33.06;32.42
34742;BME280;20968;42.696;23.360;2022-08-03T11:19:51;95305.69;;;33.22;32.20
34742;BME280;20968;42.696;23.360;2022-08-03T11:22:18;95296.78;;;33.40;33.02
34742;BME280;20968;42.696;23.360;2022-08-03T11:35:56;95268.38;;;33.56;32.65
34742;BME280;20968;42.696;23.360;2022-08-03T11:38:22;95277.16;;;33.10;33.16
34742;BME280;20968;42.696;23.360;2022-08-03T11:40:52;95269.34;;;33.35;33.46
34742;BME280;20968;42.696;23.360;2022-08-03T11:46:05;95271.56;;;33.87;32.22
34742;BME280;20968;42.696;23.360;2022-08-03T11:48:38;95268.84;;;34.02;30.74
34742;BME280;20968;42.696;23.360;2022-08-03T11:51:26;95269.84;;;34.07;31.51
34742;BME280;20968;42.696;23.360;2022-08-03T11:54:02;95267.63;;;33.80;32.80
34742;BME280;20968;42.696;23.360;2022-08-03T11:56:43;95270.34;;;34.03;30.87
34742;BME280;20968;42.696;23.360;2022-08-03T11:59:09;95267.31;;;34.26;30.85
34742;BME280;20968;42.696;23.360;2022-08-03T12:01:34;95275.25;;;34.14;31.03
34742;BME280;20968;42.696;23.360;2022-08-03T12:04:04;95263.31;;;33.93;30.82
34742;BME280;20968;42.696;23.360;2022-08-03T12:06:30;95268.53;;;33.96;30.95
34742;BME280;20968;42.696;23.360;2022-08-03T12:08:55;95263.19;;;34.15;30.25
34742;BME280;20968;42.696;23.360;2022-08-03T12:11:21;95262.56;;;34.30;30.47
34742;BME280;20968;42.696;23.360;2022-08-03T12:13:48;95257.47;;;34.42;30.59
34742;BME280;20968;42.696;23.360;2022-08-03T12:16:19;95253.75;;;34.53;29.14
34742;BME280;20968;42.696;23.360;2022-08-03T12:19:02;95254.50;;;34.40;29.11
34742;BME280;20968;42.696;23.360;2022-08-03T12:21:29;95252.16;;;34.37;28.61
34742;BME280;20968;42.696;23.360;2022-08-03T12:23:56;95251.41;;;34.23;28.44
34742;BME280;20968;42.696;23.360;2022-08-03T12:26:24;95247.28;;;34.26;29.13
34742;BME280;20968;42.696;23.360;2022-08-03T12:28:49;95252.59;;;34.18;28.50
34742;BME280;20968;42.696;23.360;2022-08-03T12:31:15;95254.06;;;34.19;29.54
34742;BME280;20968;42.696;23.360;2022-08-03T12:34:00;95247.66;;;33.94;30.46
34742;BME280;20968;42.696;23.360;2022-08-03T12:36:31;95253.16;;;34.03;31.25
34742;BME280;20968;42.696;23.360;2022-08-03T12:39:00;95243.34;;;34.19;30.25
34742;BME280;20968;42.696;23.360;2022-08-03T12:41:35;95246.66;;;34.27;28.75
34742;BME280;20968;42.696;23.360;2022-08-03T12:44:02;95240.66;;;33.97;28.98
34742;BME280;20968;42.696;23.360;2022-08-03T12:46:31;95236.16;;;34.18;29.56
34742;BME280;20968;42.696;23.360;2022-08-03T12:51:35;95241.47;;;34.64;28.75
34742;BME280;20968;42.696;23.360;2022-08-03T12:54:01;95236.56;;;34.93;28.88
34742;BME280;20968;42.696;23.360;2022-08-03T12:56:26;95236.50;;;34.65;29.65
34742;BME280;20968;42.696;23.360;2022-08-03T12:58:52;95226.94;;;34.47;28.56
34742;BME280;20968;42.696;23.360;2022-08-03T13:01:18;95229.16;;;34.75;28.91
34742;BME280;20968;42.696;23.360;2022-08-03T13:03:47;95234.84;;;35.02;29.22
34742;BME280;20968;42.696;23.360;2022-08-03T13:06:14;95228.69;;;35.36;27.93
34742;BME280;20968;42.696;23.360;2022-08-03T13:08:40;95215.09;;;35.66;27.79
34742;BME280;20968;42.696;23.360;2022-08-03T13:11:25;95219.47;;;35.38;26.67
34742;BME280;20968;42.696;23.360;2022-08-03T13:13:52;95220.00;;;35.63;27.50
34742;BME280;20968;42.696;23.360;2022-08-03T13:16:18;95223.28;;;35.42;28.59
34742;BME280;20968;42.696;23.360;2022-08-03T13:18:44;95210.44;;;34.59;30.06
34742;BME280;20968;42.696;23.360;2022-08-03T13:21:12;95215.16;;;34.27;29.70
34742;BME280;20968;42.696;23.360;2022-08-03T13:23:38;95219.47;;;34.02;30.37
34742;BME280;20968;42.696;23.360;2022-08-03T13:26:03;95216.50;;;34.00;30.72
34742;BME280;20968;42.696;23.360;2022-08-03T13:28:29;95224.28;;;34.10;30.64
34742;BME280;20968;42.696;23.360;2022-08-03T13:30:54;95216.97;;;34.34;30.86
34742;BME280;20968;42.696;23.360;2022-08-03T13:33:20;95220.16;;;34.67;30.32
34742;BME280;20968;42.696;23.360;2022-08-03T13:35:45;95211.31;;;34.90;29.19
34742;BME280;20968;42.696;23.360;2022-08-03T13:38:11;95222.59;;;34.46;30.02
34742;BME280;20968;42.696;23.360;2022-08-03T13:40:36;95216.50;;;34.00;30.62